createdAt,value
2018-02-18T21:54:26.289Z,4.60
2018-02-18T21:56:56.405Z,4.50
2018-02-18T21:59:25.605Z,4.40
2018-02-18T22:01:55.314Z,4.30
2018-02-18T22:04:24.516Z,4.30
2018-02-18T22:06:53.749Z,4.40
2018-02-18T22:09:23.032Z,4.40
2018-02-18T22:11:52.649Z,4.40
2018-02-18T22:14:22.176Z,4.40
2018-02-18T22:16:51.372Z,4.50
2018-02-18T22:19:20.753Z,4.40
2018-02-18T22:21:49.945Z,4.50
2018-02-18T22:24:19.352Z,4.40
2018-02-18T22:26:48.797Z,4.30
2018-02-18T22:29:18.157Z,4.40
2018-02-18T22:31:47.361Z,4.40
2018-02-18T22:34:16.771Z,4.40
2018-02-18T22:39:13.585Z,4.30
2018-02-18T22:41:42.838Z,4.30
2018-02-18T22:44:12.964Z,4.30
2018-02-18T22:46:43.585Z,4.30
2018-02-18T22:49:13.614Z,4.30
2018-02-18T22:51:43.539Z,4.20
2018-02-18T22:54:12.781Z,4.20
2018-02-18T22:56:42.932Z,4.00
2018-02-18T22:59:12.541Z,4.10
2018-02-18T23:01:42.145Z,4.10
2018-02-18T23:04:11.570Z,4.10
2018-02-18T23:06:40.960Z,4.20
2018-02-18T23:09:10.983Z,4.00
2018-02-18T23:11:40.389Z,4.00
2018-02-18T23:14:09.630Z,4.00
2018-02-18T23:16:38.977Z,3.90
2018-02-18T23:19:08.215Z,3.90
2018-02-18T23:21:37.576Z,3.80
2018-02-18T23:24:07.320Z,3.70
2018-02-18T23:26:36.720Z,3.60
2018-02-18T23:29:06.055Z,3.60
2018-02-18T23:31:35.407Z,3.50
2018-02-18T23:34:05.405Z,3.40
2018-02-18T23:36:35.433Z,3.40
2018-02-18T23:39:04.669Z,3.40
2018-02-18T23:41:34.528Z,3.50
2018-02-18T23:44:04.751Z,3.30
2018-02-18T23:46:33.991Z,3.30
2018-02-18T23:49:03.367Z,3.40
2018-02-18T23:51:32.592Z,3.40
2018-02-18T23:54:01.970Z,3.30
2018-02-18T23:56:31.207Z,3.30
2018-02-18T23:59:00.606Z,3.30
